Time;durP1;ratioP1;P1;durP2;ratioP2;P2;SDS_P1;SDS_P2;PMS_P1;PMS_P2;Temp;Humidity;BMP_temperature;BMP_pressure;BME280_temperature;BME280_humidity;BME280_pressure;Samples;Min_cycle;Max_cycle;Signal;HPM_P1;HPM_P2
2022/12/24 00:00:05;;;;;;;10.15;6.03;;;9.00;99.90;;;;;;5072466;28;20580;-87
2022/12/24 00:02:31;;;;;;;12.05;5.85;;;9.00;99.90;;;;;;5055452;28;20036;-88
2022/12/24 00:04:56;;;;;;;11.40;5.90;;;9.10;99.90;;;;;;5023552;28;20044;-88
2022/12/24 00:07:22;;;;;;;10.25;6.15;;;9.00;99.90;;;;;;5040020;28;20074;-87
2022/12/24 00:09:48;;;;;;;13.60;5.78;;;9.00;99.90;;;;;;5038946;28;20043;-87
2022/12/24 00:12:14;;;;;;;9.77;5.70;;;9.00;99.90;;;;;;5056384;28;20079;-87
2022/12/24 00:14:39;;;;;;;13.30;5.90;;;9.00;99.90;;;;;;5054971;28;20985;-88
2022/12/24 00:17:05;;;;;;;13.98;5.55;;;9.00;99.90;;;;;;5039248;28;20050;-88
2022/12/24 00:19:31;;;;;;;13.73;5.85;;;8.90;99.90;;;;;;5023430;28;20036;-87
2022/12/24 00:21:56;;;;;;;12.05;5.07;;;9.00;99.90;;;;;;5038471;28;20044;-87
2022/12/24 00:24:22;;;;;;;15.43;5.70;;;9.00;99.90;;;;;;5037670;28;20127;-87
2022/12/24 00:26:48;;;;;;;12.38;5.90;;;8.90;99.90;;;;;;5039223;28;20044;-87
2022/12/24 00:29:13;;;;;;;11.63;5.22;;;9.00;99.90;;;;;;5054725;28;20042;-88
2022/12/24 00:31:39;;;;;;;13.20;5.18;;;8.90;99.90;;;;;;5038798;28;20044;-87
2022/12/24 00:34:05;;;;;;;13.27;4.80;;;8.90;99.90;;;;;;5021989;28;20129;-88
2022/12/24 00:36:31;;;;;;;7.90;4.43;;;9.00;99.90;;;;;;5054333;28;20399;-88
2022/12/24 00:38:56;;;;;;;10.35;4.30;;;8.90;99.90;;;;;;5037786;28;20698;-88
2022/12/24 00:41:26;;;;;;;8.10;5.13;;;9.00;99.90;;;;;;5038189;28;20044;-87
2022/12/24 00:44:01;;;;;;;8.35;4.80;;;8.90;99.90;;;;;;5039140;28;20047;-87
2022/12/24 00:46:29;;;;;;;12.07;5.00;;;8.90;99.90;;;;;;5054037;28;20483;-87
2022/12/24 00:48:55;;;;;;;12.20;5.43;;;8.90;99.90;;;;;;5054020;28;20467;-87
2022/12/24 00:51:22;;;;;;;13.82;5.22;;;8.90;99.90;;;;;;5054594;28;20083;-89
2022/12/24 00:53:48;;;;;;;13.23;5.47;;;9.00;99.90;;;;;;5055603;28;20039;-87
2022/12/24 00:56:14;;;;;;;10.63;4.97;;;9.00;99.90;;;;;;5054944;28;20526;-88
2022/12/24 00:58:39;;;;;;;8.30;4.80;;;9.00;99.90;;;;;;5053713;28;20040;-87
2022/12/24 01:01:05;;;;;;;10.95;5.35;;;9.00;99.90;;;;;;5054781;28;20048;-87
2022/12/24 01:03:34;;;;;;;5.57;3.53;;;9.00;99.90;;;;;;5054671;28;20043;-87
2022/12/24 01:06:05;;;;;;;9.93;3.70;;;9.00;99.90;;;;;;5054141;28;20493;-88
2022/12/24 01:08:31;;;;;;;7.40;3.22;;;9.10;99.90;;;;;;5053329;28;20472;-87
2022/12/24 01:10:57;;;;;;;8.27;3.22;;;9.10;99.90;;;;;;5071361;28;20047;-88
2022/12/24 01:13:23;;;;;;;5.13;3.30;;;9.10;99.90;;;;;;5022600;28;20115;-88
2022/12/24 01:15:49;;;;;;;4.63;2.60;;;9.10;99.90;;;;;;5038795;28;20075;-88
2022/12/24 01:18:15;;;;;;;10.45;2.90;;;9.10;99.90;;;;;;5054901;28;20512;-89
2022/12/24 01:20:41;;;;;;;14.80;3.38;;;9.10;99.90;;;;;;5038531;28;20032;-88
2022/12/24 01:23:07;;;;;;;12.07;3.75;;;9.10;99.90;;;;;;5021777;28;20119;-89
2022/12/24 01:25:32;;;;;;;22.27;4.78;;;9.00;99.90;;;;;;5051821;28;20424;-89
2022/12/24 01:27:58;;;;;;;25.42;4.70;;;9.00;99.90;;;;;;5051901;28;20076;-89
2022/12/24 01:30:24;;;;;;;20.52;5.38;;;9.00;99.90;;;;;;5051923;28;20503;-90
2022/12/24 01:32:50;;;;;;;22.25;4.30;;;9.00;99.90;;;;;;5035647;28;20124;-88
2022/12/24 01:35:16;;;;;;;27.80;4.80;;;9.00;99.90;;;;;;5035186;28;20111;-89
2022/12/24 01:37:42;;;;;;;35.50;5.22;;;9.00;99.90;;;;;;5034861;28;20124;-89
2022/12/24 01:45:52;;;;;;;35.72;4.68;;;8.90;99.90;;;;;;5053853;28;20052;-89
2022/12/24 01:48:38;;;;;;;42.75;6.25;;;8.90;99.90;;;;;;5054071;28;20119;-88
2022/12/24 01:51:14;;;;;;;45.95;6.25;;;8.90;99.90;;;;;;5055395;28;20070;-89
2022/12/24 01:53:46;;;;;;;45.03;7.80;;;9.10;99.90;;;;;;5055498;28;20178;-88
2022/12/24 01:56:13;;;;;;;36.00;6.40;;;8.90;99.90;;;;;;5055305;28;20044;-89
2022/12/24 01:58:41;;;;;;;37.65;5.55;;;8.90;99.90;;;;;;5056877;28;20040;-87
2022/12/24 02:01:08;;;;;;;38.00;6.68;;;8.90;99.90;;;;;;5056818;28;20036;-88
2022/12/24 02:03:34;;;;;;;39.85;5.18;;;8.80;99.90;;;;;;5038056;28;20040;-87
2022/12/24 02:06:00;;;;;;;37.60;7.20;;;8.90;99.90;;;;;;5022388;28;20086;-87
2022/12/24 02:08:38;;;;;;;46.58;6.22;;;8.90;99.90;;;;;;5038098;28;20048;-87
2022/12/24 02:11:16;;;;;;;35.03;5.95;;;8.80;99.90;;;;;;5055141;28;20508;-88
2022/12/24 02:13:47;;;;;;;39.08;5.93;;;9.00;99.90;;;;;;5054370;28;20528;-87
2022/12/24 02:16:34;;;;;;;33.47;4.97;;;8.90;99.90;;;;;;5054594;28;20041;-88
2022/12/24 02:19:09;;;;;;;34.05;5.80;;;9.00;99.90;;;;;;5048021;28;20044;-87
2022/12/24 02:21:47;;;;;;;30.75;5.63;;;9.00;99.90;;;;;;5054640;28;20051;-87
2022/12/24 02:24:43;;;;;;;39.15;5.35;;;9.00;99.90;;;;;;5054116;28;20395;-87
2022/12/24 02:27:59;;;;;;;33.17;4.60;;;9.00;99.90;;;;;;5054372;28;20028;-88
2022/12/24 02:30:31;;;;;;;34.70;5.72;;;9.10;99.90;;;;;;5017662;28;20041;-87
2022/12/24 02:33:05;;;;;;;38.28;5.45;;;9.10;99.90;;;;;;5053767;28;20076;-88
2022/12/24 02:35:46;;;;;;;38.30;6.22;;;9.10;99.90;;;;;;5053829;28;20051;-87
2022/12/24 02:38:31;;;;;;;36.05;6.63;;;9.10;99.90;;;;;;5052892;28;20051;-88
2022/12/24 02:41:02;;;;;;;39.90;7.10;;;9.10;99.90;;;;;;5070706;28;20338;-88
2022/12/24 02:43:35;;;;;;;34.22;6.55;;;9.20;99.90;;;;;;5053608;28;20522;-87
2022/12/24 02:46:08;;;;;;;32.50;5.47;;;9.20;99.90;;;;;;5054545;28;20082;-87
2022/12/24 02:48:36;;;;;;;35.45;6.60;;;9.70;99.90;;;;;;5053852;28;20041;-87
2022/12/24 02:51:05;;;;;;;39.88;5.97;;;9.20;99.90;;;;;;5059039;28;20078;-87
2022/12/24 02:53:32;;;;;;;47.03;6.53;;;9.20;99.90;;;;;;5054083;28;20646;-87
2022/12/24 02:56:13;;;;;;;43.63;7.20;;;9.20;99.90;;;;;;5054323;28;20040;-87
2022/12/24 02:58:54;;;;;;;35.90;5.28;;;9.20;99.90;;;;;;5052044;28;20094;-87
2022/12/24 03:01:54;;;;;;;31.65;5.90;;;9.20;99.90;;;;;;5051929;28;20393;-87
2022/12/24 03:04:39;;;;;;;33.42;5.35;;;9.20;99.90;;;;;;5069869;28;20098;-88
2022/12/24 03:07:25;;;;;;;32.67;5.80;;;9.20;99.90;;;;;;5052539;28;20039;-87
2022/12/24 03:10:13;;;;;;;42.88;6.55;;;9.20;99.90;;;;;;5052746;28;20043;-87
2022/12/24 03:12:53;;;;;;;40.10;5.00;;;9.20;99.90;;;;;;5053447;28;20503;-86
2022/12/24 03:15:21;;;;;;;41.53;6.85;;;9.20;99.90;;;;;;5068979;28;20083;-87
2022/12/24 03:17:49;;;;;;;28.15;5.22;;;9.20;99.90;;;;;;5053135;28;20123;-87
2022/12/24 03:20:23;;;;;;;40.75;6.30;;;9.20;99.90;;;;;;5052778;28;20044;-86
2022/12/24 03:22:49;;;;;;;29.55;5.63;;;9.20;99.90;;;;;;5051779;28;20047;-87
2022/12/24 03:25:15;;;;;;;43.90;6.95;;;9.20;99.90;;;;;;5008315;28;20139;-87
2022/12/24 03:27:42;;;;;;;32.28;6.03;;;9.20;99.90;;;;;;5034865;28;20039;-87
2022/12/24 03:30:12;;;;;;;34.92;6.47;;;9.20;99.90;;;;;;5009874;28;20036;-87
2022/12/24 03:32:38;;;;;;;32.17;5.68;;;9.20;99.90;;;;;;5035409;28;20071;-88
2022/12/24 03:35:06;;;;;;;38.58;6.07;;;9.20;99.90;;;;;;5036242;28;20446;-87
2022/12/24 03:37:31;;;;;;;33.13;6.22;;;9.20;99.90;;;;;;5035899;28;20109;-87
2022/12/24 03:39:57;;;;;;;36.88;5.35;;;9.20;99.90;;;;;;5020148;28;20040;-87
2022/12/24 03:42:23;;;;;;;35.03;6.72;;;9.20;99.90;;;;;;5050962;28;20036;-87
2022/12/24 03:44:49;;;;;;;34.28;5.78;;;9.20;99.90;;;;;;5034476;28;20051;-87
2022/12/24 03:47:14;;;;;;;42.33;6.45;;;9.20;99.90;;;;;;5035586;28;20037;-87
2022/12/24 03:49:40;;;;;;;36.88;6.53;;;9.20;99.90;;;;;;5035375;28;20084;-87
2022/12/24 03:52:06;;;;;;;37.50;6.43;;;9.50;99.90;;;;;;5018406;28;20400;-87
2022/12/24 03:54:31;;;;;;;36.20;5.95;;;9.20;99.90;;;;;;5051770;28;20036;-87
2022/12/24 03:56:57;;;;;;;38.80;5.60;;;9.10;99.90;;;;;;5034797;28;20041;-87
2022/12/24 03:59:23;;;;;;;36.58;6.30;;;9.20;99.90;;;;;;5051218;28;20431;-87
2022/12/24 04:01:49;;;;;;;42.75;6.18;;;9.20;99.90;;;;;;5018827;28;20037;-87
2022/12/24 04:04:15;;;;;;;40.05;6.00;;;9.20;99.90;;;;;;5019346;28;20059;-87
2022/12/24 04:06:40;;;;;;;33.65;6.55;;;9.30;99.90;;;;;;5052032;28;20469;-87
2022/12/24 04:09:06;;;;;;;47.05;6.60;;;9.20;99.90;;;;;;5034215;28;20040;-87
2022/12/24 04:11:32;;;;;;;40.92;6.35;;;9.20;99.90;;;;;;5034926;28;20036;-87
2022/12/24 04:13:58;;;;;;;37.53;5.50;;;9.20;99.90;;;;;;5033179;28;20174;-87
2022/12/24 04:16:24;;;;;;;40.50;6.47;;;9.20;99.90;;;;;;5033660;28;20426;-87
2022/12/24 04:18:49;;;;;;;28.33;6.00;;;9.20;99.90;;;;;;5035138;28;20128;-87
2022/12/24 04:21:15;;;;;;;43.75;7.15;;;9.20;99.90;;;;;;5002774;28;20044;-87
2022/12/24 04:23:41;;;;;;;35.88;5.53;;;9.20;99.90;;;;;;5019757;28;20044;-87
2022/12/24 04:26:09;;;;;;;40.95;6.07;;;9.10;99.90;;;;;;5071020;28;20044;-87
2022/12/24 04:28:36;;;;;;;38.42;6.35;;;9.20;99.90;;;;;;5055269;28;20044;-87
2022/12/24 04:31:05;;;;;;;39.05;5.95;;;9.20;99.90;;;;;;5056521;28;20062;-87
2022/12/24 04:33:31;;;;;;;41.50;6.47;;;9.20;99.90;;;;;;5073551;28;20051;-87
2022/12/24 04:35:58;;;;;;;37.55;6.55;;;9.20;99.90;;;;;;5058061;28;20092;-87
2022/12/24 04:38:24;;;;;;;37.13;6.07;;;9.10;99.90;;;;;;5055859;28;20040;-87
2022/12/24 04:40:58;;;;;;;36.13;5.68;;;9.10;99.90;;;;;;5072449;28;20100;-87
2022/12/24 04:43:24;;;;;;;42.33;6.70;;;9.10;99.90;;;;;;5039085;28;20047;-87
2022/12/24 04:45:49;;;;;;;44.97;6.05;;;9.30;99.90;;;;;;5038277;28;20040;-87
2022/12/24 04:48:15;;;;;;;46.83;6.75;;;9.10;99.90;;;;;;5022118;28;20453;-87
2022/12/24 04:50:41;;;;;;;31.30;6.00;;;9.10;99.90;;;;;;5056579;28;20087;-87
2022/12/24 04:53:06;;;;;;;46.45;7.03;;;9.10;99.90;;;;;;5023005;28;20044;-87
2022/12/24 04:55:32;;;;;;;39.90;6.53;;;9.10;99.90;;;;;;5054146;28;20179;-87
2022/12/24 04:57:59;;;;;;;35.80;5.85;;;9.10;99.90;;;;;;5038325;28;20043;-87
2022/12/24 05:00:25;;;;;;;37.53;5.40;;;9.10;99.90;;;;;;5021815;28;20044;-87
2022/12/24 05:02:51;;;;;;;34.58;6.90;;;9.10;99.90;;;;;;5053544;28;20051;-87
2022/12/24 05:05:16;;;;;;;49.08;7.22;;;9.10;99.90;;;;;;5055056;28;20341;-87
2022/12/24 05:07:42;;;;;;;30.70;6.03;;;9.00;99.90;;;;;;5038286;28;20040;-87
2022/12/24 05:10:09;;;;;;;41.67;6.22;;;9.10;99.90;;;;;;5038911;28;20050;-87
2022/12/24 05:12:35;;;;;;;36.03;6.32;;;9.10;99.90;;;;;;5022229;28;20051;-87
2022/12/24 05:15:03;;;;;;;47.58;6.45;;;9.10;99.90;;;;;;5071412;28;20392;-87
2022/12/24 05:17:28;;;;;;;40.35;6.03;;;9.10;99.90;;;;;;5054239;28;20036;-87
2022/12/24 05:19:54;;;;;;;42.53;6.90;;;9.10;99.90;;;;;;5038751;28;20036;-88
2022/12/24 05:27:48;;;;;;;40.67;5.85;;;9.10;99.90;;;;;;5057464;28;20047;-87
2022/12/24 05:30:14;;;;;;;39.80;6.22;;;9.20;99.90;;;;;;5038749;28;20037;-88
2022/12/24 05:32:40;;;;;;;46.60;7.28;;;9.10;99.90;;;;;;5021706;28;20399;-87
2022/12/24 05:35:06;;;;;;;34.15;5.90;;;9.10;99.90;;;;;;5055256;28;20682;-87
2022/12/24 05:37:31;;;;;;;38.35;5.63;;;9.10;99.90;;;;;;5037627;28;20041;-87
2022/12/24 05:39:57;;;;;;;32.92;5.47;;;9.10;99.90;;;;;;5038914;28;20155;-87
2022/12/24 05:42:22;;;;;;;34.95;6.05;;;9.10;99.90;;;;;;5055046;28;20044;-87
2022/12/24 05:44:48;;;;;;;37.28;6.05;;;9.10;99.90;;;;;;5021694;28;20791;-87
2022/12/24 05:47:14;;;;;;;41.67;6.20;;;8.90;99.90;;;;;;5054094;28;20055;-87
2022/12/24 05:49:39;;;;;;;36.00;5.65;;;8.90;99.90;;;;;;5072817;28;20049;-87
2022/12/24 05:52:05;;;;;;;40.13;6.25;;;9.00;99.90;;;;;;5038163;28;20234;-87
2022/12/24 05:54:31;;;;;;;36.97;5.45;;;8.90;99.90;;;;;;5038243;28;20048;-87
2022/12/24 05:56:56;;;;;;;39.13;5.85;;;8.90;99.90;;;;;;5038209;28;20036;-87
2022/12/24 05:59:22;;;;;;;44.33;5.75;;;8.90;99.90;;;;;;5021451;28;20101;-87
2022/12/24 06:01:48;;;;;;;36.95;5.05;;;8.90;99.90;;;;;;5037201;28;21086;-87
2022/12/24 06:04:13;;;;;;;39.38;5.25;;;8.80;99.90;;;;;;5037648;28;20035;-87
2022/12/24 06:06:39;;;;;;;31.45;4.53;;;8.80;99.90;;;;;;5037983;28;20477;-87
2022/12/24 06:09:05;;;;;;;36.15;4.97;;;8.80;99.90;;;;;;5053181;28;20037;-87
2022/12/24 06:11:31;;;;;;;31.73;5.63;;;8.80;99.90;;;;;;5037741;28;20045;-87
2022/12/24 06:13:56;;;;;;;38.65;6.40;;;8.70;99.90;;;;;;5053309;28;20042;-87
2022/12/24 06:16:24;;;;;;;30.02;5.55;;;9.00;99.90;;;;;;5054873;28;20048;-87
2022/12/24 06:18:50;;;;;;;36.67;6.30;;;8.70;99.90;;;;;;5037691;28;20052;-87
2022/12/24 06:21:17;;;;;;;31.38;5.10;;;8.70;99.90;;;;;;5054035;28;20119;-88
2022/12/24 06:23:44;;;;;;;31.88;5.57;;;8.70;99.90;;;;;;5036754;28;20040;-87
2022/12/24 06:26:16;;;;;;;26.73;4.65;;;8.60;99.90;;;;;;5038278;28;20495;-87
2022/12/24 06:28:43;;;;;;;29.77;5.13;;;9.10;99.90;;;;;;5053362;28;20472;-87
2022/12/24 06:31:12;;;;;;;33.58;5.32;;;8.60;99.90;;;;;;5071037;28;20333;-87
2022/12/24 06:33:38;;;;;;;34.67;6.35;;;8.60;99.90;;;;;;5053120;28;20040;-87
2022/12/24 06:36:08;;;;;;;37.05;5.90;;;8.50;99.90;;;;;;5037598;28;20037;-87
2022/12/24 06:38:34;;;;;;;37.17;5.63;;;8.50;99.90;;;;;;5054044;28;20053;-87
2022/12/24 06:41:05;;;;;;;28.88;6.40;;;8.50;99.90;;;;;;5037233;28;20403;-88
2022/12/24 06:43:33;;;;;;;34.10;5.45;;;8.50;99.90;;;;;;5069073;28;20044;-88
2022/12/24 06:46:00;;;;;;;32.55;5.10;;;8.50;99.90;;;;;;5021475;28;20059;-87
2022/12/24 06:48:26;;;;;;;33.75;5.57;;;8.50;99.90;;;;;;5053560;28;20535;-87
2022/12/24 06:50:52;;;;;;;41.03;5.40;;;8.40;99.90;;;;;;5053626;28;20040;-87
2022/12/24 06:53:17;;;;;;;32.42;5.78;;;8.50;99.90;;;;;;5036841;28;20041;-87
2022/12/24 06:55:43;;;;;;;30.70;5.00;;;8.50;99.90;;;;;;5037082;28;20050;-87
2022/12/24 06:58:09;;;;;;;30.90;4.63;;;8.50;99.90;;;;;;5036562;28;20040;-87
2022/12/24 07:00:35;;;;;;;29.27;5.82;;;8.50;99.90;;;;;;5037303;28;20075;-87
2022/12/24 07:03:01;;;;;;;36.33;5.88;;;8.50;99.90;;;;;;5020234;28;20475;-87
2022/12/24 07:05:27;;;;;;;26.75;4.90;;;8.50;99.90;;;;;;5054709;28;20060;-87
2022/12/24 07:07:54;;;;;;;33.65;5.43;;;8.50;99.90;;;;;;5036611;28;20130;-90
2022/12/24 07:10:20;;;;;;;25.52;5.47;;;8.50;99.90;;;;;;5052118;28;20040;-84
2022/12/24 07:12:47;;;;;;;26.85;4.90;;;8.60;99.90;;;;;;5066706;28;20129;-84
2022/12/24 07:15:14;;;;;;;44.13;6.43;;;8.50;99.90;;;;;;5050987;28;20040;-84
2022/12/24 07:17:40;;;;;;;34.00;5.03;;;8.50;99.90;;;;;;5025734;28;20037;-84
2022/12/24 07:20:07;;;;;;;31.65;4.93;;;8.50;99.90;;;;;;5018323;28;20123;-86
2022/12/24 07:22:33;;;;;;;33.50;5.43;;;8.50;99.90;;;;;;5033960;28;20522;-83
2022/12/24 07:24:59;;;;;;;30.73;5.38;;;8.50;99.90;;;;;;5052053;28;20053;-84
2022/12/24 07:27:24;;;;;;;33.40;5.75;;;8.50;99.90;;;;;;5018692;28;20245;-83
2022/12/24 07:29:50;;;;;;;35.17;5.55;;;8.80;99.90;;;;;;5051685;28;20107;-85
2022/12/24 07:32:16;;;;;;;39.00;6.18;;;8.60;99.90;;;;;;5034476;28;20522;-86
2022/12/24 07:34:42;;;;;;;41.08;5.60;;;8.60;99.90;;;;;;5051825;28;20115;-86
2022/12/24 07:37:07;;;;;;;45.10;6.32;;;8.60;99.90;;;;;;5069426;28;20048;-86
2022/12/24 07:39:33;;;;;;;40.17;5.93;;;8.70;99.90;;;;;;5019802;28;20404;-86
2022/12/24 07:41:59;;;;;;;38.45;5.70;;;8.70;99.90;;;;;;5036157;28;20512;-86
2022/12/24 07:44:24;;;;;;;40.30;6.78;;;8.70;99.90;;;;;;5034419;28;20040;-85
2022/12/24 07:46:50;;;;;;;42.28;5.45;;;8.70;99.90;;;;;;5017501;28;20036;-86
2022/12/24 07:49:16;;;;;;;40.20;5.93;;;8.70;99.90;;;;;;5035014;28;20039;-84
2022/12/24 07:51:42;;;;;;;36.20;6.00;;;8.70;99.90;;;;;;5018458;28;20400;-84
2022/12/24 07:54:07;;;;;;;32.67;6.00;;;8.70;99.90;;;;;;5050724;28;20094;-84
2022/12/24 07:56:33;;;;;;;40.40;6.63;;;8.80;99.90;;;;;;5051999;28;20097;-84
2022/12/24 07:58:59;;;;;;;34.63;6.50;;;8.80;99.90;;;;;;5034732;28;20040;-85
2022/12/24 08:01:25;;;;;;;37.13;6.47;;;8.80;99.90;;;;;;5033477;28;20067;-85
2022/12/24 08:03:53;;;;;;;42.10;6.38;;;8.80;99.90;;;;;;5051705;28;20058;-85
2022/12/24 08:06:19;;;;;;;41.58;5.03;;;8.90;99.90;;;;;;5051829;28;20064;-86
2022/12/24 08:08:45;;;;;;;38.63;6.50;;;8.80;99.90;;;;;;5068861;28;20044;-86
2022/12/24 08:11:11;;;;;;;41.13;6.70;;;8.90;99.90;;;;;;5036637;28;20032;-85
2022/12/24 08:13:37;;;;;;;31.98;5.53;;;9.40;99.90;;;;;;5050100;28;20032;-84
2022/12/24 08:16:04;;;;;;;55.00;6.30;;;8.90;99.90;;;;;;5068342;28;20557;-85
2022/12/24 08:18:29;;;;;;;44.63;7.05;;;8.90;99.90;;;;;;5052360;28;20044;-84
2022/12/24 08:20:55;;;;;;;46.45;6.60;;;8.90;99.90;;;;;;5034900;28;20322;-85
2022/12/24 08:23:22;;;;;;;39.47;6.55;;;8.90;99.90;;;;;;5017983;28;20496;-83
2022/12/24 08:25:48;;;;;;;42.90;6.25;;;9.00;99.90;;;;;;5051187;28;20056;-84
2022/12/24 08:28:16;;;;;;;34.20;5.88;;;9.00;99.90;;;;;;5032735;28;20441;-83
2022/12/24 08:30:42;;;;;;;38.08;6.50;;;9.00;99.90;;;;;;5049667;28;20079;-82
2022/12/24 08:33:08;;;;;;;45.63;6.88;;;9.00;99.90;;;;;;5046974;28;20036;-83
2022/12/24 08:35:34;;;;;;;40.38;6.70;;;9.10;99.90;;;;;;5050889;28;20041;-83
2022/12/24 08:38:00;;;;;;;36.75;6.25;;;9.10;99.90;;;;;;5051048;28;20043;-83
2022/12/24 08:40:26;;;;;;;39.85;5.95;;;9.20;99.90;;;;;;5052722;28;20044;-83
2022/12/24 08:42:51;;;;;;;49.47;7.22;;;9.20;99.90;;;;;;5034178;28;20049;-84
2022/12/24 08:45:18;;;;;;;42.92;6.55;;;9.20;99.90;;;;;;5067504;28;20068;-83
2022/12/24 08:47:44;;;;;;;48.60;6.43;;;9.20;99.90;;;;;;5067614;28;20067;-85
2022/12/24 08:50:10;;;;;;;36.30;6.25;;;9.20;99.90;;;;;;5034801;28;20044;-86
2022/12/24 08:52:35;;;;;;;45.20;8.02;;;9.20;99.90;;;;;;5049528;28;20041;-84
2022/12/24 08:55:01;;;;;;;41.90;6.60;;;9.30;99.90;;;;;;5034004;28;20048;-84
2022/12/24 08:57:27;;;;;;;43.58;7.40;;;9.30;99.90;;;;;;5069867;28;20102;-82
2022/12/24 08:59:53;;;;;;;32.28;5.68;;;9.40;99.90;;;;;;5053209;28;20189;-83
2022/12/24 09:02:19;;;;;;;34.63;6.72;;;9.40;99.90;;;;;;5054969;28;20496;-83
2022/12/24 09:04:45;;;;;;;58.88;8.30;;;9.40;99.90;;;;;;5054737;28;20152;-84
2022/12/24 09:07:10;;;;;;;49.15;6.80;;;9.40;99.90;;;;;;5022203;28;20455;-83
2022/12/24 09:09:37;;;;;;;44.47;6.30;;;9.40;99.90;;;;;;5030011;28;20036;-83
2022/12/24 09:12:06;;;;;;;49.28;5.80;;;9.40;99.90;;;;;;5024975;28;20043;-83
2022/12/24 09:14:32;;;;;;;40.97;6.90;;;9.40;99.90;;;;;;5054153;28;20127;-82
2022/12/24 09:16:58;;;;;;;40.67;5.60;;;9.40;99.90;;;;;;5053725;28;20492;-83
2022/12/24 09:19:26;;;;;;;35.50;6.18;;;9.40;99.90;;;;;;5054895;28;20045;-84
2022/12/24 09:21:51;;;;;;;51.05;7.85;;;9.40;99.90;;;;;;5071086;28;20044;-86
2022/12/24 09:24:17;;;;;;;46.47;7.20;;;9.40;99.90;;;;;;5020661;28;20425;-83
2022/12/24 09:26:44;;;;;;;43.90;7.07;;;9.40;99.90;;;;;;5037123;28;20036;-84
2022/12/24 09:29:10;;;;;;;43.47;6.43;;;9.40;99.90;;;;;;5055104;28;20043;-84
2022/12/24 09:31:36;;;;;;;38.47;5.88;;;9.50;99.90;;;;;;5037617;28;20045;-85
2022/12/24 09:34:02;;;;;;;39.85;5.65;;;9.50;99.90;;;;;;5052274;28;20094;-84
2022/12/24 09:36:27;;;;;;;36.30;5.45;;;8.20;99.90;;;;;;5057419;28;20113;-82
2022/12/24 09:38:53;;;;;;;40.10;6.93;;;9.50;99.90;;;;;;5041091;28;20048;-84
2022/12/24 09:41:41;;;;;;;40.50;5.47;;;9.50;99.90;;;;;;5035685;28;20044;-84
2022/12/24 09:44:21;;;;;;;37.35;5.75;;;9.50;99.90;;;;;;5071130;28;20477;-84
2022/12/24 09:46:51;;;;;;;42.20;7.00;;;9.40;99.90;;;;;;5052682;28;20047;-82
2022/12/24 09:49:21;;;;;;;40.40;5.53;;;9.50;99.90;;;;;;5051957;28;20040;-85
2022/12/24 09:51:55;;;;;;;33.72;5.80;;;9.40;99.90;;;;;;5052898;28;20051;-83
2022/12/24 09:54:27;;;;;;;38.10;5.88;;;9.40;99.90;;;;;;5053694;28;20120;-84
2022/12/24 09:56:56;;;;;;;47.95;6.57;;;9.30;99.90;;;;;;5070724;28;20045;-82
2022/12/24 09:59:25;;;;;;;46.80;7.30;;;9.30;99.90;;;;;;5037522;28;20500;-84
2022/12/24 10:01:53;;;;;;;46.47;6.47;;;9.30;99.90;;;;;;5069996;28;20102;-81
2022/12/24 10:04:30;;;;;;;46.60;6.90;;;9.40;99.90;;;;;;5070151;28;20032;-86
2022/12/24 10:07:01;;;;;;;39.10;6.18;;;9.40;99.90;;;;;;5053040;28;20076;-84
2022/12/24 10:09:54;;;;;;;48.67;7.45;;;9.40;99.90;;;;;;5052616;28;20033;-82
2022/12/24 10:12:43;;;;;;;39.35;7.35;;;9.50;99.90;;;;;;5053440;28;20480;-82
2022/12/24 10:15:27;;;;;;;45.97;6.75;;;9.50;99.90;;;;;;5053793;28;20047;-82
2022/12/24 10:18:24;;;;;;;33.65;5.32;;;9.60;99.90;;;;;;5054138;28;20048;-82
2022/12/24 10:20:59;;;;;;;36.95;6.28;;;9.60;99.90;;;;;;5053564;28;20040;-85
2022/12/24 10:23:54;;;;;;;41.25;6.35;;;9.60;99.90;;;;;;5051386;28;20043;-83
2022/12/24 10:26:28;;;;;;;36.60;5.65;;;9.70;99.90;;;;;;5055529;28;20511;-85
2022/12/24 10:29:00;;;;;;;43.70;6.70;;;9.60;99.90;;;;;;5057396;28;20539;-84
2022/12/24 10:31:30;;;;;;;38.88;6.07;;;9.70;99.90;;;;;;5055983;28;20043;-82
2022/12/24 10:34:12;;;;;;;48.97;6.80;;;9.80;99.90;;;;;;5056388;28;20040;-82
2022/12/24 10:36:38;;;;;;;45.95;6.53;;;9.70;99.90;;;;;;5072995;28;20036;-83
2022/12/24 10:39:05;;;;;;;45.03;6.68;;;9.80;99.90;;;;;;5056328;28;20036;-84
2022/12/24 10:41:34;;;;;;;36.33;6.47;;;9.80;99.90;;;;;;5073096;28;20568;-83
2022/12/24 10:44:13;;;;;;;44.33;7.05;;;9.80;99.90;;;;;;5041011;28;20411;-83
2022/12/24 10:46:40;;;;;;;41.22;6.30;;;9.80;99.90;;;;;;5072840;28;20039;-82
2022/12/24 10:49:13;;;;;;;35.30;6.35;;;9.80;99.90;;;;;;5055566;28;20051;-82
2022/12/24 10:51:57;;;;;;;48.63;7.20;;;9.80;99.90;;;;;;5052463;28;20148;-82
2022/12/24 10:54:27;;;;;;;33.13;5.38;;;9.80;99.90;;;;;;5064612;28;20043;-81
2022/12/24 10:56:59;;;;;;;53.67;9.07;;;9.80;99.90;;;;;;5055839;28;20050;-82
2022/12/24 10:59:33;;;;;;;46.03;6.18;;;9.80;99.90;;;;;;5049119;28;20119;-83
2022/12/24 11:02:00;;;;;;;57.95;8.77;;;9.80;99.90;;;;;;5046828;28;20119;-82
2022/12/24 11:04:28;;;;;;;46.55;7.05;;;9.80;99.90;;;;;;5057948;28;20051;-82
2022/12/24 11:07:06;;;;;;;37.03;6.60;;;9.80;99.90;;;;;;5074288;28;20032;-82
2022/12/24 11:09:34;;;;;;;43.72;6.60;;;9.80;99.90;;;;;;5071690;28;20072;-81
2022/12/24 11:12:02;;;;;;;42.33;6.50;;;9.80;99.90;;;;;;5073278;28;20048;-82
2022/12/24 11:14:34;;;;;;;42.42;6.93;;;9.80;99.90;;;;;;5071532;28;20039;-82
2022/12/24 11:17:00;;;;;;;46.25;7.13;;;9.80;99.90;;;;;;5056745;28;20040;-82
2022/12/24 11:19:32;;;;;;;40.53;7.25;;;9.80;99.90;;;;;;5054943;28;20040;-82
2022/12/24 11:22:04;;;;;;;39.15;6.13;;;9.80;99.90;;;;;;5072311;28;20050;-82
2022/12/24 11:24:34;;;;;;;38.97;7.28;;;9.80;99.90;;;;;;5072146;28;20048;-82
2022/12/24 11:27:30;;;;;;;51.10;7.32;;;9.80;99.90;;;;;;5071747;28;20121;-82
2022/12/24 11:30:29;;;;;;;43.45;7.32;;;9.90;99.90;;;;;;5055939;28;20050;-81
2022/12/24 11:33:02;;;;;;;42.60;7.32;;;9.90;99.90;;;;;;5029419;28;20056;-81
2022/12/24 11:35:30;;;;;;;36.30;5.60;;;9.90;99.90;;;;;;5072474;28;20078;-82
2022/12/24 11:37:59;;;;;;;34.53;6.30;;;9.90;99.90;;;;;;5072882;28;20122;-81
2022/12/24 11:40:32;;;;;;;31.02;6.03;;;9.90;99.90;;;;;;5055506;28;20032;-82
2022/12/24 11:43:03;;;;;;;36.92;6.00;;;10.00;99.90;;;;;;5064026;28;20056;-82
2022/12/24 11:45:31;;;;;;;39.70;7.00;;;9.90;99.90;;;;;;5045082;28;20040;-82
2022/12/24 11:47:58;;;;;;;36.90;6.20;;;10.00;99.90;;;;;;5061686;28;20063;-82
2022/12/24 11:50:34;;;;;;;35.20;6.03;;;10.00;99.90;;;;;;5054914;28;20040;-82
2022/12/24 11:53:02;;;;;;;51.70;7.18;;;10.00;99.90;;;;;;5069758;28;20044;-82
2022/12/24 11:55:40;;;;;;;34.13;6.00;;;10.00;99.90;;;;;;5089362;28;20149;-82
2022/12/24 11:58:27;;;;;;;31.13;5.38;;;10.00;99.90;;;;;;5055581;28;20047;-82
2022/12/24 12:01:20;;;;;;;44.95;6.25;;;10.00;99.90;;;;;;5051502;28;20048;-82
2022/12/24 12:03:53;;;;;;;35.22;6.38;;;10.00;99.90;;;;;;5070352;28;20047;-82
2022/12/24 12:06:49;;;;;;;32.83;6.05;;;10.10;99.90;;;;;;5071460;28;20078;-82
2022/12/24 12:09:28;;;;;;;33.33;4.75;;;10.10;99.90;;;;;;5067055;28;20700;-82
2022/12/24 12:12:24;;;;;;;38.97;6.68;;;10.10;99.90;;;;;;5071666;28;20048;-82
2022/12/24 12:14:59;;;;;;;31.85;5.95;;;10.20;99.90;;;;;;5067983;28;20202;-83
2022/12/24 12:17:53;;;;;;;31.65;5.88;;;10.20;99.90;;;;;;5053745;28;20040;-83
2022/12/24 12:20:27;;;;;;;31.45;5.28;;;10.20;99.90;;;;;;5073544;28;20051;-83
2022/12/24 12:22:57;;;;;;;32.00;6.32;;;10.30;99.90;;;;;;5056184;28;20048;-83
2022/12/24 12:25:30;;;;;;;33.58;5.88;;;10.20;99.90;;;;;;5056686;28;20059;-83
2022/12/24 12:27:56;;;;;;;27.02;5.28;;;10.30;99.90;;;;;;5071782;28;20094;-83
2022/12/24 12:30:24;;;;;;;36.67;5.47;;;10.30;99.90;;;;;;5039011;28;20036;-83
2022/12/24 12:33:08;;;;;;;23.92;4.20;;;10.30;99.90;;;;;;5048544;28;20047;-83
2022/12/24 12:35:38;;;;;;;31.48;5.35;;;10.30;99.90;;;;;;5073495;28;20463;-83
2022/12/24 12:38:08;;;;;;;26.23;5.10;;;10.30;99.90;;;;;;5055449;28;20086;-83
2022/12/24 12:40:43;;;;;;;22.58;5.25;;;10.30;99.90;;;;;;5073103;28;20122;-83
2022/12/24 12:43:31;;;;;;;26.35;4.75;;;10.30;99.90;;;;;;5072660;28;20044;-82
2022/12/24 12:46:11;;;;;;;22.88;4.40;;;10.30;99.90;;;;;;5034471;28;20044;-83
2022/12/24 12:49:05;;;;;;;28.50;4.65;;;10.30;99.90;;;;;;5046597;28;20044;-82
2022/12/24 12:52:23;;;;;;;29.30;5.65;;;10.30;99.90;;;;;;5059809;28;20032;-83
2022/12/24 12:55:07;;;;;;;21.15;4.30;;;10.40;99.90;;;;;;5015848;28;21037;-83
2022/12/24 12:57:36;;;;;;;25.15;3.95;;;10.40;99.90;;;;;;5031079;28;20045;-83
2022/12/24 13:00:15;;;;;;;28.20;4.85;;;10.50;99.90;;;;;;5055139;28;20044;-83
2022/12/24 13:03:22;;;;;;;20.88;4.75;;;10.60;99.90;;;;;;5072576;28;20075;-82
2022/12/24 13:05:48;;;;;;;;;;;10.80;99.90;;;;;;5063069;28;20048;-83
2022/12/24 13:08:44;;;;;;;22.90;4.20;;;11.10;99.90;;;;;;5072163;28;19942;-83
2022/12/24 13:11:41;;;;;;;24.45;4.03;;;11.30;99.90;;;;;;5055948;28;20036;-83